Tatabanya, Hungary
Current Conditions -  °F | °C
As of 12:45 AM on Saturday 25 Oct 2014 (Local Time) from LHPR Reporting Station
Overcast Overcast  
Wind Chill: 45°   Ceiling: 1500
Heat Index: 45°   Visibility: 4mi
Dew Point: 43°   Wind: 3mph
Humidity: 93%   Direction: 90°E
Pressure: 30.21"   Gusts: NA
Location:  47.55°N, 18.44°E
Report Text: LHPR 242245Z 09003KT 6000 OVC015 07/06 Q1023
Loading
Personal Weather Stations






























Interactive Weather Map
Tropical Storm Tracking
New forecast layout! Learn more

10-Day Weather Forecast

Advertisements
Track Severe Weather on mobile